createdAt,value
2018-09-21T00:01:39.974Z,2.27
2018-09-21T00:04:13.253Z,2.40
2018-09-21T00:06:41.310Z,2.30
2018-09-21T00:09:10.686Z,2.13
2018-09-21T00:11:38.561Z,2.20
2018-09-21T00:14:06.543Z,2.50
2018-09-21T00:16:34.590Z,2.20
2018-09-21T00:19:02.909Z,2.23
2018-09-21T00:21:31.042Z,2.23
2018-09-21T00:23:59.146Z,2.10
2018-09-21T00:26:27.190Z,1.90
2018-09-21T00:28:55.078Z,2.40
2018-09-21T00:31:22.970Z,2.60
2018-09-21T00:33:51.101Z,2.47
2018-09-21T00:36:19.158Z,2.30
2018-09-21T00:38:47.385Z,2.23
2018-09-21T00:41:15.309Z,2.40
2018-09-21T00:43:43.186Z,2.10
2018-09-21T00:46:11.158Z,2.33
2018-09-21T00:48:39.210Z,2.13
2018-09-21T00:51:07.098Z,2.20
2018-09-21T00:53:35.042Z,2.20
2018-09-21T00:56:03.125Z,2.03
2018-09-21T00:58:31.192Z,2.27
2018-09-21T01:00:59.277Z,2.10
2018-09-21T01:03:27.330Z,2.27
2018-09-21T01:05:55.354Z,2.10
2018-09-21T01:08:23.226Z,2.23
2018-09-21T01:10:51.249Z,2.23
2018-09-21T01:13:19.129Z,2.30
2018-09-21T01:15:47.325Z,2.30
2018-09-21T01:18:15.433Z,2.20
2018-09-21T01:20:43.533Z,2.17
2018-09-21T01:23:11.594Z,1.97
2018-09-21T01:25:39.518Z,2.40
2018-09-21T01:28:07.553Z,2.07
2018-09-21T01:30:35.526Z,2.00
2018-09-21T01:33:03.425Z,2.43
2018-09-21T01:35:31.354Z,2.40
2018-09-21T01:37:59.406Z,2.10
2018-09-21T01:40:27.489Z,2.20
2018-09-21T01:42:55.549Z,2.20
2018-09-21T01:45:23.450Z,2.27
2018-09-21T01:47:51.515Z,2.40
2018-09-21T01:50:19.436Z,2.30
2018-09-21T01:52:47.306Z,2.40
2018-09-21T01:55:15.335Z,2.00
2018-09-21T01:57:43.214Z,2.30
2018-09-21T02:00:11.109Z,2.17
2018-09-21T02:02:39.194Z,2.27
2018-09-21T02:05:07.281Z,2.40
2018-09-21T02:07:35.342Z,2.40
2018-09-21T02:10:03.253Z,2.20
2018-09-21T02:12:31.174Z,2.30
2018-09-21T02:14:59.065Z,2.07
2018-09-21T02:17:26.962Z,2.33
2018-09-21T02:19:55.086Z,2.47
2018-09-21T02:22:22.985Z,2.30
2018-09-21T02:24:50.865Z,2.20
2018-09-21T02:27:19.001Z,2.47
2018-09-21T02:29:47.056Z,2.40
2018-09-21T02:32:15.150Z,2.20
2018-09-21T02:34:43.034Z,2.40
2018-09-21T02:37:10.930Z,2.60
2018-09-21T02:39:39.038Z,2.37
2018-09-21T02:42:06.938Z,2.37
2018-09-21T02:44:34.818Z,2.40
2018-09-21T02:47:02.964Z,2.40
2018-09-21T02:49:30.838Z,2.43
2018-09-21T02:51:58.794Z,2.43
2018-09-21T02:54:26.676Z,2.60
2018-09-21T02:56:54.624Z,2.20
2018-09-21T02:59:22.689Z,2.50
2018-09-21T03:01:50.774Z,2.60
2018-09-21T03:04:18.662Z,2.40
2018-09-21T03:06:46.610Z,2.30
2018-09-21T03:09:14.490Z,2.53
2018-09-21T03:11:42.395Z,2.40
2018-09-21T03:14:10.501Z,2.00
2018-09-21T03:16:38.402Z,2.40
2018-09-21T03:19:06.645Z,2.20
2018-09-21T03:21:34.551Z,2.40
2018-09-21T03:24:02.478Z,2.50
2018-09-21T03:26:30.561Z,2.60
2018-09-21T03:28:58.650Z,2.67
2018-09-21T03:31:26.713Z,2.40
2018-09-21T03:33:54.594Z,2.47
2018-09-21T03:36:22.505Z,2.60
2018-09-21T03:38:50.506Z,2.60
2018-09-21T03:41:18.693Z,2.47
2018-09-21T03:43:46.579Z,2.40
2018-09-21T03:46:14.474Z,2.90
2018-09-21T03:48:42.373Z,2.83
2018-09-21T03:51:10.358Z,2.63
2018-09-21T03:53:38.439Z,2.40
2018-09-21T03:56:06.319Z,2.60
2018-09-21T03:58:34.261Z,2.40
2018-09-21T04:01:02.173Z,2.60
2018-09-21T04:03:30.057Z,2.53
2018-09-21T04:05:57.937Z,2.70
2018-09-21T04:08:25.925Z,2.50
2018-09-21T04:10:53.988Z,2.90
2018-09-21T04:13:22.087Z,2.80
2018-09-21T04:15:50.133Z,2.50
2018-09-21T04:18:18.029Z,2.73
2018-09-21T04:20:45.917Z,2.90
2018-09-21T04:23:14.194Z,2.67
2018-09-21T04:25:41.950Z,2.90
2018-09-21T04:28:09.849Z,2.60
2018-09-21T04:30:37.934Z,2.80
2018-09-21T04:33:05.845Z,2.80
2018-09-21T04:35:33.722Z,2.87
2018-09-21T04:38:01.867Z,2.97
2018-09-21T04:40:29.917Z,2.73
2018-09-21T04:42:57.809Z,2.80
2018-09-21T04:45:25.685Z,2.50
2018-09-21T04:47:53.841Z,2.70
2018-09-21T04:50:21.718Z,2.87
2018-09-21T04:52:49.684Z,2.80
2018-09-21T04:55:17.562Z,2.77
2018-09-21T04:57:45.462Z,2.80
2018-09-21T05:00:13.558Z,2.83
2018-09-21T05:02:41.657Z,3.20
2018-09-21T05:05:09.713Z,2.80
2018-09-21T05:07:37.605Z,2.70
2018-09-21T05:10:05.555Z,2.87
2018-09-21T05:12:33.629Z,3.00
2018-09-21T05:15:01.693Z,2.63
2018-09-21T05:17:29.596Z,2.70
2018-09-21T05:19:57.593Z,3.03
2018-09-21T05:22:25.421Z,2.80
2018-09-21T05:24:53.361Z,3.07
2018-09-21T05:27:21.453Z,2.57
2018-09-21T05:29:49.509Z,2.87
2018-09-21T05:32:17.422Z,2.90
2018-09-21T05:34:45.391Z,2.87
2018-09-21T05:37:13.409Z,2.90
2018-09-21T05:39:41.314Z,3.40
2018-09-21T05:42:09.202Z,3.20
2018-09-21T05:44:37.111Z,2.90
2018-09-21T05:47:04.998Z,3.10
2018-09-21T05:49:33.165Z,2.60
2018-09-21T05:52:01.228Z,3.03
2018-09-21T05:54:29.129Z,3.70
2018-09-21T05:56:57.062Z,3.93
2018-09-21T05:59:25.146Z,4.23
2018-09-21T06:01:53.025Z,4.07
2018-09-21T06:04:20.977Z,4.13
2018-09-21T06:06:49.612Z,4.10
2018-09-21T06:09:17.509Z,4.00
2018-09-21T06:11:45.389Z,3.93
2018-09-21T06:14:13.400Z,4.57
2018-09-21T06:16:41.301Z,3.90
2018-09-21T06:19:09.203Z,4.10
2018-09-21T06:21:37.121Z,4.17
2018-09-21T06:24:05.474Z,4.10
2018-09-21T06:26:33.566Z,6.80
2018-09-21T06:29:01.710Z,6.20
2018-09-21T06:31:29.762Z,6.63
2018-09-21T06:33:57.858Z,6.30
2018-09-21T06:36:25.893Z,12.37
2018-09-21T06:38:54.810Z,11.37
2018-09-21T06:41:22.866Z,9.83
2018-09-21T06:43:50.848Z,8.50
2018-09-21T06:46:18.721Z,7.83
2018-09-21T06:48:46.761Z,8.50
2018-09-21T06:51:14.642Z,8.80
2018-09-21T06:53:42.539Z,26.77
2018-09-21T06:56:10.669Z,27.03
2018-09-21T06:58:38.770Z,23.63
2018-09-21T07:01:06.682Z,20.03
2018-09-21T07:03:34.581Z,16.83
2018-09-21T07:06:02.600Z,15.27
2018-09-21T07:08:30.737Z,15.17
2018-09-21T07:10:59.037Z,16.50
2018-09-21T07:13:26.933Z,28.20
2018-09-21T07:15:54.865Z,32.20
2018-09-21T07:18:22.720Z,29.30
2018-09-21T07:20:50.743Z,28.13
2018-09-21T07:23:19.297Z,29.40
2018-09-21T07:25:47.541Z,24.23
2018-09-21T07:28:15.426Z,23.07
2018-09-21T07:30:43.343Z,11.43
2018-09-21T07:33:11.249Z,8.20
2018-09-21T07:35:39.217Z,6.37
2018-09-21T07:38:07.274Z,6.77
2018-09-21T07:40:35.365Z,12.03
2018-09-21T07:43:03.450Z,24.40
2018-09-21T07:45:31.501Z,23.23
2018-09-21T07:47:59.542Z,22.77
2018-09-21T07:50:27.480Z,19.33
2018-09-21T07:52:55.397Z,18.47
2018-09-21T07:55:23.303Z,15.70
2018-09-21T07:57:51.230Z,12.73
2018-09-21T08:00:19.316Z,15.37
2018-09-21T08:02:47.202Z,14.23
2018-09-21T08:05:15.176Z,14.17
2018-09-21T08:07:43.205Z,16.17
2018-09-21T08:10:11.125Z,19.53
2018-09-21T08:12:39.017Z,27.27
2018-09-21T08:15:07.122Z,26.70
2018-09-21T08:17:35.190Z,72.30
2018-09-21T08:20:03.365Z,65.73
2018-09-21T08:22:31.254Z,71.00
2018-09-21T08:24:59.277Z,66.33
2018-09-21T08:27:27.185Z,47.43
2018-09-21T08:29:55.088Z,38.10
2018-09-21T08:32:23.006Z,27.23
2018-09-21T08:34:51.852Z,17.20
2018-09-21T08:37:19.809Z,8.50
2018-09-21T08:39:47.833Z,5.60
2018-09-21T08:42:15.890Z,5.20
2018-09-21T08:44:43.982Z,4.60
2018-09-21T08:47:11.869Z,4.30
2018-09-21T08:49:39.814Z,3.60
2018-09-21T08:52:07.700Z,3.77
2018-09-21T08:54:35.604Z,3.50
2018-09-21T08:57:03.497Z,3.50
2018-09-21T08:59:31.481Z,5.97
2018-09-21T09:01:59.373Z,6.20
2018-09-21T09:04:27.307Z,4.50
2018-09-21T09:06:55.211Z,4.23
2018-09-21T09:09:24.623Z,4.03
2018-09-21T09:11:52.664Z,4.00
2018-09-21T09:14:20.725Z,3.50
2018-09-21T09:16:48.638Z,4.17
2018-09-21T09:19:16.554Z,3.37
2018-09-21T09:21:44.453Z,4.10
2018-09-21T09:24:12.364Z,3.60
2018-09-21T09:26:40.388Z,3.30
2018-09-21T09:29:08.653Z,3.70
2018-09-21T09:31:36.726Z,3.70
2018-09-21T09:34:04.602Z,3.53
2018-09-21T09:36:32.550Z,3.37
2018-09-21T09:39:00.429Z,3.37
2018-09-21T09:41:28.393Z,3.57
2018-09-21T09:43:56.447Z,3.57
2018-09-21T09:46:24.338Z,2.90
2018-09-21T09:48:52.508Z,3.17
2018-09-21T09:51:20.367Z,3.10
2018-09-21T09:53:48.245Z,3.20
2018-09-21T09:56:16.208Z,5.43
2018-09-21T09:58:44.267Z,7.63
2018-09-21T10:01:12.158Z,7.00
2018-09-21T10:03:40.128Z,5.90
2018-09-21T10:06:08.165Z,5.00
2018-09-21T10:08:36.216Z,4.33
2018-09-21T10:11:04.614Z,4.33
2018-09-21T10:13:32.912Z,3.60
2018-09-21T10:16:00.793Z,3.93
2018-09-21T10:18:28.649Z,3.47
2018-09-21T10:20:56.818Z,3.00
2018-09-21T10:23:24.869Z,3.37
2018-09-21T10:25:52.986Z,3.27
2018-09-21T10:28:21.128Z,3.40
2018-09-21T10:30:48.876Z,3.63
2018-09-21T10:33:18.416Z,3.07
2018-09-21T10:35:57.428Z,8.17
2018-09-21T10:38:25.345Z,5.37
2018-09-21T10:40:53.241Z,9.60
2018-09-21T10:43:21.422Z,7.13
2018-09-21T10:45:49.830Z,10.33
2018-09-21T10:48:17.881Z,6.93
2018-09-21T10:50:45.765Z,6.47
2018-09-21T10:53:26.569Z,5.47
2018-09-21T10:55:54.466Z,5.97
2018-09-21T10:58:22.645Z,6.00
2018-09-21T11:00:50.538Z,5.90
2018-09-21T11:03:18.505Z,12.40
2018-09-21T11:05:46.397Z,12.30
2018-09-21T11:08:14.343Z,10.40
2018-09-21T11:10:42.221Z,9.33
2018-09-21T11:13:10.946Z,7.87
2018-09-21T11:15:38.915Z,8.07
2018-09-21T11:18:06.826Z,8.57
2018-09-21T11:20:34.975Z,7.00
2018-09-21T11:23:02.926Z,7.27
2018-09-21T11:25:30.788Z,6.90
2018-09-21T11:27:58.901Z,6.13
2018-09-21T11:30:26.785Z,5.87
2018-09-21T11:32:54.715Z,6.00
2018-09-21T11:35:22.793Z,5.83
2018-09-21T11:37:50.882Z,5.43
2018-09-21T11:40:18.770Z,5.37
2018-09-21T11:42:46.717Z,3.93
2018-09-21T11:45:14.774Z,3.83
2018-09-21T11:47:42.798Z,3.70
2018-09-21T11:50:10.670Z,3.20
2018-09-21T11:52:38.698Z,3.30
2018-09-21T11:55:08.145Z,14.07
2018-09-21T11:57:36.049Z,30.40
2018-09-21T12:00:03.934Z,21.43
2018-09-21T12:02:31.831Z,12.97
2018-09-21T12:04:59.820Z,11.00
2018-09-21T12:07:27.652Z,6.90
2018-09-21T12:09:55.801Z,4.80
2018-09-21T12:12:23.934Z,4.13
2018-09-21T12:14:51.953Z,3.93
2018-09-21T12:17:19.820Z,3.40
2018-09-21T12:19:47.926Z,21.43
2018-09-21T12:22:15.897Z,31.37
2018-09-21T12:24:43.777Z,54.17
2018-09-21T12:27:11.693Z,43.50
2018-09-21T12:29:39.693Z,30.93
2018-09-21T12:32:07.663Z,30.50
2018-09-21T12:34:35.570Z,22.17
2018-09-21T12:37:03.456Z,24.10
2018-09-21T12:39:31.442Z,23.43
2018-09-21T12:44:49.198Z,18.97
2018-09-21T12:47:17.166Z,19.03
2018-09-21T12:49:45.206Z,15.17
2018-09-21T12:52:13.105Z,14.13
2018-09-21T12:54:41.062Z,11.60
2018-09-21T12:59:41.735Z,7.67
2018-09-21T13:02:09.985Z,7.27
2018-09-21T13:07:14.446Z,5.83
2018-09-21T13:09:42.394Z,11.80
2018-09-21T13:12:10.441Z,11.57
2018-09-21T13:14:38.365Z,14.07
2018-09-21T13:17:06.258Z,13.30
2018-09-21T13:19:34.370Z,12.83
2018-09-21T13:22:02.259Z,10.47
2018-09-21T13:24:30.330Z,10.73
2018-09-21T13:26:58.258Z,10.03
2018-09-21T13:29:26.165Z,19.47
2018-09-21T13:31:54.094Z,22.70
2018-09-21T13:34:22.177Z,11.83
2018-09-21T13:36:50.233Z,15.23
2018-09-21T13:39:18.126Z,10.13
2018-09-21T13:41:46.457Z,5.57
2018-09-21T13:44:14.374Z,5.17
2018-09-21T13:46:42.969Z,4.10
2018-09-21T13:49:10.917Z,4.10
2018-09-21T13:51:38.969Z,3.77
2018-09-21T13:54:06.861Z,2.67
2018-09-21T13:56:34.947Z,3.43
2018-09-21T13:59:02.885Z,2.80
2018-09-21T14:01:30.776Z,3.10
2018-09-21T14:03:58.717Z,2.83
2018-09-21T14:06:26.769Z,2.60
2018-09-21T14:08:54.858Z,2.30
2018-09-21T14:11:22.733Z,2.13
2018-09-21T14:13:50.692Z,2.20
2018-09-21T14:16:18.758Z,2.20
2018-09-21T14:18:46.837Z,2.00
2018-09-21T14:21:14.762Z,1.93
2018-09-21T14:23:42.625Z,1.57
2018-09-21T14:26:10.503Z,1.60
2018-09-21T14:28:38.390Z,1.90
2018-09-21T14:31:06.561Z,2.00
2018-09-21T14:33:34.653Z,1.10
2018-09-21T14:36:02.542Z,1.20
2018-09-21T14:38:30.432Z,1.00
2018-09-21T14:40:58.556Z,1.13
2018-09-21T14:43:26.637Z,1.27
2018-09-21T14:45:54.540Z,1.30
2018-09-21T14:48:22.601Z,1.13
2018-09-21T14:50:50.546Z,1.13
2018-09-21T14:53:18.577Z,1.00
2018-09-21T14:55:48.819Z,1.67
2018-09-21T14:58:16.757Z,1.53
2018-09-21T15:00:45.793Z,1.13
2018-09-21T15:03:14.991Z,0.70
2018-09-21T15:05:42.993Z,1.00
2018-09-21T15:08:10.869Z,0.90
2018-09-21T15:10:38.745Z,1.10
2018-09-21T15:13:06.742Z,0.73
2018-09-21T15:15:34.750Z,0.80
2018-09-21T15:18:02.882Z,0.70
2018-09-21T15:20:30.969Z,0.80
2018-09-21T15:22:59.030Z,0.80
2018-09-21T15:25:27.385Z,0.70
2018-09-21T15:27:55.473Z,1.00
2018-09-21T15:30:23.369Z,0.83
2018-09-21T15:32:51.284Z,0.80
2018-09-21T15:35:19.417Z,0.80
2018-09-21T15:37:47.461Z,0.90
2018-09-21T15:40:15.545Z,0.77
2018-09-21T15:42:43.577Z,1.10
2018-09-21T15:45:11.680Z,0.80
2018-09-21T15:47:39.735Z,2.13
2018-09-21T15:50:07.829Z,7.80
2018-09-21T15:52:35.739Z,12.50
2018-09-21T15:55:03.674Z,16.60
2018-09-21T15:57:31.714Z,9.97
2018-09-21T15:59:59.801Z,6.50
2018-09-21T16:02:27.817Z,6.00
2018-09-21T16:04:55.954Z,5.50
2018-09-21T16:07:24.011Z,3.87
2018-09-21T16:09:52.022Z,4.50
2018-09-21T16:12:19.913Z,3.80
2018-09-21T16:14:47.797Z,3.77
2018-09-21T16:17:15.813Z,3.97
2018-09-21T16:19:43.698Z,3.52
2018-09-21T16:22:11.598Z,3.60
2018-09-21T16:24:39.590Z,3.50
2018-09-21T16:27:07.597Z,2.10
2018-09-21T16:29:35.494Z,1.70
2018-09-21T16:32:03.623Z,1.17
2018-09-21T16:34:31.503Z,1.40
2018-09-21T16:36:59.695Z,1.00
2018-09-21T16:39:27.510Z,1.20
2018-09-21T16:41:55.413Z,1.10
2018-09-21T16:44:23.525Z,1.07
2018-09-21T16:46:51.604Z,1.13
2018-09-21T16:49:19.662Z,1.43
2018-09-21T16:51:47.706Z,1.40
2018-09-21T16:54:15.808Z,1.80
2018-09-21T16:56:43.718Z,1.70
2018-09-21T16:59:11.595Z,1.87
2018-09-21T17:01:39.525Z,1.40
2018-09-21T17:04:07.478Z,1.70
2018-09-21T17:06:35.486Z,1.60
2018-09-21T17:09:03.785Z,1.47
2018-09-21T17:11:31.702Z,1.30
2018-09-21T17:13:59.601Z,1.83
2018-09-21T17:16:27.493Z,1.30
2018-09-21T17:18:55.374Z,1.80
2018-09-21T17:21:23.376Z,1.90
2018-09-21T17:23:51.354Z,1.30
2018-09-21T17:26:19.482Z,1.43
2018-09-21T17:28:47.897Z,1.30
2018-09-21T17:31:15.948Z,1.60
2018-09-21T17:33:43.842Z,1.13
2018-09-21T17:36:11.785Z,1.40
2018-09-21T17:38:39.873Z,1.30
2018-09-21T17:41:07.927Z,1.43
2018-09-21T17:43:35.846Z,1.20
2018-09-21T17:46:03.730Z,1.17
2018-09-21T17:48:31.628Z,1.30
2018-09-21T17:50:59.504Z,1.10
2018-09-21T17:53:27.809Z,1.27
2018-09-21T17:55:55.742Z,1.17
2018-09-21T17:58:23.953Z,1.30
2018-09-21T18:00:51.891Z,1.10
2018-09-21T18:03:19.780Z,1.10
2018-09-21T18:05:47.722Z,1.13
2018-09-21T18:08:15.801Z,1.20
2018-09-21T18:10:43.694Z,1.27
2018-09-21T18:13:11.638Z,1.30
2018-09-21T18:15:39.526Z,1.13
2018-09-21T18:18:07.477Z,1.30
2018-09-21T18:20:35.391Z,1.07
2018-09-21T18:23:03.309Z,1.20
2018-09-21T18:25:31.436Z,1.00
2018-09-21T18:27:59.449Z,1.07
2018-09-21T18:30:27.509Z,1.03
2018-09-21T18:32:55.731Z,0.90
2018-09-21T18:35:23.609Z,0.90
2018-09-21T18:37:51.504Z,0.90
2018-09-21T18:40:19.388Z,0.90
2018-09-21T18:42:47.708Z,0.83
2018-09-21T18:45:15.759Z,0.97
2018-09-21T18:47:43.656Z,1.10
2018-09-21T18:50:12.008Z,0.80
2018-09-21T18:52:40.165Z,1.10
2018-09-21T18:55:08.221Z,1.20
2018-09-21T18:57:36.306Z,0.83
2018-09-21T19:00:04.674Z,0.90
2018-09-21T19:02:32.766Z,0.90
2018-09-21T19:05:00.813Z,0.77
2018-09-21T19:07:29.625Z,1.10
2018-09-21T19:09:57.818Z,1.00
2018-09-21T19:12:26.182Z,0.80
2018-09-21T19:14:54.347Z,1.07
2018-09-21T19:17:22.330Z,0.90
2018-09-21T19:19:50.729Z,0.83
2018-09-21T19:22:19.084Z,0.60
2018-09-21T19:24:46.989Z,0.73
2018-09-21T19:27:15.013Z,0.93
2018-09-21T19:29:42.918Z,0.90
2018-09-21T19:32:10.809Z,0.90
2018-09-21T19:34:38.914Z,0.73
2018-09-21T19:37:06.789Z,0.83
2018-09-21T19:39:34.884Z,1.03
2018-09-21T19:42:02.765Z,0.80
2018-09-21T19:44:30.881Z,1.00
2018-09-21T19:46:58.757Z,0.80
2018-09-21T19:49:26.730Z,0.80
2018-09-21T19:51:54.784Z,0.73
2018-09-21T19:54:22.683Z,0.70
2018-09-21T19:56:50.562Z,0.80
2018-09-21T19:59:18.454Z,0.80
2018-09-21T20:01:46.350Z,0.60
2018-09-21T20:04:14.241Z,0.90
2018-09-21T20:06:42.121Z,0.70
2018-09-21T20:09:11.321Z,0.80
2018-09-21T20:11:39.485Z,0.50
2018-09-21T20:14:07.441Z,0.70
2018-09-21T20:16:35.573Z,0.70
2018-09-21T20:19:03.577Z,0.70
2018-09-21T20:21:31.461Z,0.70
2018-09-21T20:23:59.357Z,0.50
2018-09-21T20:26:27.357Z,0.63
2018-09-21T20:28:55.567Z,0.53
2018-09-21T20:31:29.148Z,0.70
2018-09-21T20:33:57.169Z,0.60
2018-09-21T20:36:25.284Z,0.70
2018-09-21T20:38:53.185Z,0.53
2018-09-21T20:41:21.121Z,0.57
2018-09-21T20:43:49.193Z,0.60
2018-09-21T20:46:17.197Z,0.60
2018-09-21T20:48:45.338Z,0.60
2018-09-21T20:51:13.425Z,0.50
2018-09-21T20:53:41.477Z,0.70
2018-09-21T20:56:09.561Z,0.60
2018-09-21T20:58:37.617Z,0.50
2018-09-21T21:01:05.710Z,0.60
2018-09-21T21:03:33.585Z,0.50
2018-09-21T21:06:01.546Z,0.50
2018-09-21T21:08:29.732Z,0.60
2018-09-21T21:10:57.816Z,0.60
2018-09-21T21:13:25.706Z,0.80
2018-09-21T21:15:53.817Z,0.50
2018-09-21T21:18:22.111Z,0.50
2018-09-21T21:20:50.229Z,0.60
2018-09-21T21:23:18.113Z,0.50
2018-09-21T21:25:46.109Z,0.70
2018-09-21T21:28:14.293Z,0.47
2018-09-21T21:30:42.189Z,0.60
2018-09-21T21:33:10.094Z,0.60
2018-09-21T21:35:37.998Z,0.50
2018-09-21T21:38:06.141Z,0.63
2018-09-21T21:40:34.241Z,0.50
2018-09-21T21:43:02.289Z,0.57
2018-09-21T21:45:30.381Z,0.53
2018-09-21T21:47:58.258Z,0.50
2018-09-21T21:50:26.157Z,0.50
2018-09-21T21:52:54.296Z,0.50
2018-09-21T21:55:22.349Z,0.43
2018-09-21T21:57:50.408Z,0.50
2018-09-21T22:00:18.317Z,0.40
2018-09-21T22:02:46.245Z,0.50
2018-09-21T22:05:14.333Z,0.50
2018-09-21T22:07:42.214Z,0.60
2018-09-21T22:10:10.166Z,0.50
2018-09-21T22:12:43.726Z,0.50
2018-09-21T22:15:14.328Z,0.60
2018-09-21T22:17:42.205Z,0.40
2018-09-21T22:20:10.261Z,0.50
2018-09-21T22:22:38.150Z,0.40
2018-09-21T22:25:06.274Z,0.77
2018-09-21T22:27:34.154Z,0.50
2018-09-21T22:30:02.242Z,0.60
2018-09-21T22:32:30.165Z,0.60
2018-09-21T22:34:58.266Z,0.50
2018-09-21T22:37:26.857Z,0.40
2018-09-21T22:39:54.992Z,0.60
2018-09-21T22:42:23.209Z,0.67
2018-09-21T22:44:51.121Z,0.47
2018-09-21T22:47:19.210Z,0.50
2018-09-21T22:49:47.281Z,0.40
2018-09-21T22:52:15.369Z,0.67
2018-09-21T22:54:43.249Z,0.50
2018-09-21T22:57:11.145Z,0.50
2018-09-21T22:59:39.021Z,0.43
2018-09-21T23:02:07.032Z,0.40
2018-09-21T23:04:35.098Z,0.40
2018-09-21T23:07:03.306Z,0.50
2018-09-21T23:09:31.241Z,0.50
2018-09-21T23:11:59.345Z,0.33
2018-09-21T23:14:27.379Z,0.60
2018-09-21T23:16:55.461Z,0.60
2018-09-21T23:19:23.353Z,0.43
2018-09-21T23:21:51.249Z,0.60
2018-09-21T23:24:19.358Z,0.60
2018-09-21T23:26:47.441Z,0.40
2018-09-21T23:29:15.506Z,0.70
2018-09-21T23:31:43.612Z,0.67
2018-09-21T23:34:11.473Z,0.53
2018-09-21T23:36:39.417Z,0.50
2018-09-21T23:39:07.998Z,0.40
2018-09-21T23:41:36.223Z,0.50
2018-09-21T23:44:04.121Z,0.53
2018-09-21T23:46:32.021Z,0.43
2018-09-21T23:48:59.911Z,0.60
2018-09-21T23:51:27.812Z,0.40
2018-09-21T23:53:55.689Z,0.70
2018-09-21T23:56:23.685Z,0.60
2018-09-21T23:58:51.748Z,0.50
